Latest Weather Observations for Coolangatta

IDQ60801

Issued at 8:05 am EST Thursday 2 October 2014 (issued every 30 minutes, with the page automatically refreshed every 10 minutes)

About weather observations | Map of weather stations | Latest weather observations for QLD | Other Formats
Station Details ID: 040717 Name: COOLANGATTA Lat: -28.17 Lon: 153.51 Height: 4.0 m
Data from the previous 72 hours. | See also: Recent months at Coolangatta
Date/Time
EST
Temp
°C
App
Temp
°C
Dew
Point
Rel
Hum
%
Delta-T
°C
Wind Press
QNH
hPa
Press
MSL
hPa
Rain
since 9 am
mm
Dir
 
Spd
km/h
Gust
km/h
Spd
kts
Gust
kts
02/08:00am 18.8 16.5 10.6 59 4.4 S 13 20 7 11 1022.6 1022.6 0.0
02/07:30am 18.1 15.8 10.5 61 4.1 SW 13 17 7 9 1022.4 1022.4 0.0
02/07:00am 18.0 16.1 10.6 62 4.0 S 11 17 6 9 1022.2 1022.2 0.0
02/06:30am 17.3 14.2 10.2 63 3.8 S 17 22 9 12 1022.1 1022.1 0.0
02/06:00am 17.4 14.9 9.6 60 4.1 SSW 13 19 7 10 1021.7 1021.7 0.0
02/05:30am 17.0 14.5 9.7 62 3.8 S 13 15 7 8 1021.4 1021.4 0.0
02/05:00am 16.7 14.5 9.4 62 3.8 SSW 11 15 6 8 1021.1 1021.1 0.0
02/04:30am 16.5 14.2 9.0 61 3.9 SSW 11 13 6 7 1020.9 1020.9 0.0
02/04:00am 16.6 13.9 8.8 60 4.0 SSW 13 19 7 10 1020.6 1020.6 0.0
02/03:30am 17.1 14.4 9.0 59 4.2 SSW 13 15 7 8 1020.4 1020.4 0.0
02/03:00am 17.3 14.7 9.5 60 4.1 S 13 17 7 9 1020.3 1020.3 0.0
02/02:30am 17.8 13.8 9.2 57 4.5 S 20 30 11 16 1020.3 1020.3 0.0
02/02:00am 18.3 13.9 9.1 55 4.8 S 22 33 12 18 1020.4 1020.4 0.0
02/01:30am 18.2 14.2 9.0 55 4.8 S 20 30 11 16 1020.4 1020.4 0.0
02/01:00am 18.7 14.1 9.5 55 4.8 S 24 37 13 20 1020.5 1020.5 0.0
02/12:30am 18.7 14.6 10.0 57 4.6 S 22 33 12 18 1020.6 1020.6 0.0
02/12:00am 18.9 14.7 9.9 56 4.8 S 22 32 12 17 1020.8 1020.8 0.0
 
Date/Time
EST
Temp
°C
App
Temp
°C
Dew
Point
Rel
Hum
%
Delta-T
°C
Wind Press
QNH
hPa
Press
MSL
hPa
Rain
since 9 am
mm
Dir
 
Spd
km/h
Gust
km/h
Spd
kts
Gust
kts
01/11:30pm 19.0 14.2 10.3 57 4.7 S 26 35 14 19 1020.8 1020.8 0.0
01/11:00pm 19.0 14.3 10.6 58 4.5 S 26 37 14 20 1020.7 1020.7 0.0
01/10:30pm 19.1 14.9 11.2 60 4.3 S 24 39 13 21 1020.7 1020.7 0.0
01/10:00pm 19.2 14.2 11.0 59 4.4 S 28 43 15 23 1020.5 1020.5 0.0
01/09:31pm 19.2 14.1 12.0 63 4.0 S 30 48 16 26 1020.4 1020.4 0.0
01/09:30pm 19.3 13.9 12.1 63 4.0 S 32 48 17 26 1020.3 1020.3 0.0
01/09:00pm 19.4 13.9 12.4 64 3.9 S 33 54 18 29 1019.9 1019.9 0.0
01/08:47pm 19.5 14.3 12.7 65 3.8 S 32 52 17 28 1019.8 1019.8 0.0
01/08:30pm 19.8 14.9 12.6 63 4.0 S 30 43 16 23 1019.5 1019.5 0.0
01/08:03pm 19.9 14.5 12.2 61 4.3 S 32 50 17 27 1019.2 1019.2 0.0
01/08:00pm 19.9 14.4 12.4 62 4.2 S 33 50 18 27 1019.2 1019.2 0.0
01/07:30pm 20.2 15.4 13.9 67 3.6 S 32 50 17 27 1018.6 1018.6 0.0
01/07:08pm 20.5 15.4 14.8 70 3.3 S 35 54 19 29 1017.9 1017.9 0.0
01/07:00pm 20.6 16.0 15.2 71 3.2 S 33 48 18 26 1017.7 1017.7 0.0
01/06:30pm 20.6 15.9 14.9 70 3.3 S 33 54 18 29 1017.2 1017.2 0.0
01/06:02pm 20.9 16.2 15.9 73 3.0 S 35 54 19 29 1016.4 1016.4 0.0
01/06:00pm 20.9 15.8 15.9 73 3.0 S 37 54 20 29 1016.4 1016.4 0.0
01/05:30pm 21.4 16.0 16.1 72 3.2 S 39 59 21 32 1015.9 1015.9 0.0
01/05:02pm 22.0 18.2 16.7 72 3.2 S 32 50 17 27 1014.9 1014.9 0.0
01/05:00pm 22.0 18.3 16.9 73 3.1 S 32 48 17 26 1014.9 1014.9 0.0
01/04:40pm 23.4 20.6 17.4 69 3.7 SSE 28 54 15 29 1014.5 1014.5 0.0
01/04:30pm 23.4 23.7 17.8 71 3.5 ENE 13 20 7 11 1013.7 1013.7 0.0
01/04:00pm 22.5 20.8 18.1 76 2.7 N 24 33 13 18 1011.8 1011.7 0.0
01/03:30pm 22.7 21.2 17.8 74 3.0 N 22 32 12 17 1011.6 1011.5 0.0
01/03:00pm 23.2 21.1 18.1 73 3.2 N 26 35 14 19 1011.6 1011.5 0.0
01/02:30pm 24.1 22.8 18.1 69 3.8 N 22 33 12 18 1011.7 1011.6 0.0
01/02:00pm 23.5 21.1 18.2 72 3.3 N 28 35 15 19 1011.9 1011.8 0.0
01/01:30pm 24.5 21.1 17.7 66 4.2 N 32 43 17 23 1012.2 1012.1 0.0
01/01:00pm 24.3 21.9 18.2 68 3.8 N 28 37 15 20 1012.8 1012.8 0.0
01/12:30pm 24.1 20.3 17.1 65 4.3 N 33 41 18 22 1013.1 1013.1 0.0
01/12:00pm 24.1 20.2 16.9 64 4.4 NNE 33 43 18 23 1013.3 1013.3 0.0
01/11:30am 25.7 21.7 16.3 56 5.8 N 32 39 17 21 1013.9 1013.9 0.0
01/11:00am 25.7 21.5 15.7 54 6.1 N 32 41 17 22 1014.4 1014.4 0.0
01/10:30am 25.7 21.2 15.4 53 6.2 N 33 39 18 21 1014.8 1014.8 0.0
01/10:00am 25.4 20.7 14.8 52 6.3 NNW 33 43 18 23 1014.9 1014.9 0.0
01/09:30am 23.7 19.5 15.7 61 4.8 N 32 44 17 24 1015.3 1015.3 0.0
01/09:00am 24.1 19.6 14.8 56 5.5 N 32 41 17 22 1015.8 1015.8 0.0
01/08:30am 23.4 20.0 14.7 58 5.2 N 26 37 14 20 1016.2 1016.2 0.0
01/08:00am 22.1 19.6 14.0 60 4.7 NNW 20 33 11 18 1016.4 1016.4 0.0
01/07:30am 21.4 18.2 14.3 64 4.1 NNW 24 32 13 17 1016.2 1016.2 0.0
01/07:00am 20.3 16.6 14.0 67 3.6 NNW 26 35 14 19 1015.9 1015.9 0.0
01/06:30am 19.2 16.9 14.7 75 2.6 NNW 20 28 11 15 1015.8 1015.8 0.0
01/06:00am 18.5 16.4 14.6 78 2.3 NNW 19 26 10 14 1015.8 1015.8 0.0
01/05:30am 18.0 14.9 14.5 80 2.0 NNW 24 33 13 18 1015.6 1015.6 0.0
01/05:00am 17.7 14.9 14.4 81 1.9 N 22 30 12 16 1015.5 1015.5 0.0
01/04:30am 17.9 15.9 15.0 83 1.7 NNW 19 24 10 13 1015.4 1015.4 0.0
01/04:00am 18.2 16.3 15.1 82 1.8 NNW 19 24 10 13 1015.4 1015.4 0.0
01/03:30am 18.2 16.3 15.3 83 1.7 NNW 19 24 10 13 1015.3 1015.3 0.0
01/03:00am 18.7 16.9 15.6 82 1.8 NNW 19 24 10 13 1015.5 1015.5 0.0
01/02:30am 18.8 17.5 15.9 83 1.7 NNW 17 22 9 12 1015.6 1015.6 0.0
01/02:00am 18.9 17.6 15.9 83 1.8 NNW 17 22 9 12 1016.1 1016.1 0.0
01/01:30am 19.0 17.8 16.0 83 1.8 NNW 17 24 9 13 1016.4 1016.4 0.0
01/01:00am 19.1 18.3 16.1 83 1.8 NNW 15 26 8 14 1016.7 1016.7 0.0
01/12:30am 19.1 18.3 16.0 82 1.8 NNW 15 20 8 11 1017.2 1017.2 0.0
01/12:00am 19.1 18.6 15.8 81 2.0 NNW 13 19 7 10 1017.6 1017.6 0.0
 
Date/Time
EST
Temp
°C
App
Temp
°C
Dew
Point
Rel
Hum
%
Delta-T
°C
Wind Press
QNH
hPa
Press
MSL
hPa
Rain
since 9 am
mm
Dir
 
Spd
km/h
Gust
km/h
Spd
kts
Gust
kts
30/11:30pm 19.0 18.3 15.5 80 2.1 NNW 13 19 7 10 1017.9 1017.9 0.0
30/11:00pm 19.1 18.5 15.6 80 2.1 NNW 13 20 7 11 1018.1 1018.1 0.0
30/10:30pm 19.0 18.3 15.5 80 2.1 NW 13 19 7 10 1018.3 1018.3 0.0
30/10:00pm 19.1 18.3 15.2 78 2.3 NNW 13 19 7 10 1018.3 1018.3 0.0
30/09:30pm 19.7 19.0 15.4 76 2.5 NNW 13 20 7 11 1018.4 1018.4 0.0
30/09:00pm 19.8 18.7 15.4 76 2.6 NNW 15 20 8 11 1018.6 1018.6 0.0
30/08:30pm 20.3 18.4 15.3 73 3.0 NNW 19 26 10 14 1018.7 1018.7 0.0
30/08:00pm 20.3 18.5 16.1 77 2.5 NNW 20 28 11 15 1018.5 1018.5 0.0
30/07:30pm 20.6 17.4 16.2 76 2.6 N 28 35 15 19 1018.2 1018.2 0.0
30/07:00pm 20.7 17.7 16.9 79 2.3 N 28 37 15 20 1017.9 1017.9 0.0
30/06:30pm 20.5 17.5 16.9 80 2.2 N 28 35 15 19 1017.7 1017.7 0.0
30/06:00pm 20.8 17.3 16.6 77 2.5 N 30 37 16 20 1017.5 1017.5 0.0
30/05:30pm 21.0 17.5 16.4 75 2.8 N 30 37 16 20 1017.3 1017.3 0.0
30/05:00pm 21.4 17.5 16.4 73 3.0 N 32 39 17 21 1017.1 1017.1 0.0
30/04:30pm 21.7 17.8 16.4 72 3.2 N 32 39 17 21 1016.9 1016.9 0.0
30/04:00pm 22.1 18.0 16.4 70 3.5 N 33 41 18 22 1017.0 1017.0 0.0
30/03:30pm 22.6 19.0 16.2 67 3.9 N 30 39 16 21 1016.9 1016.9 0.0
30/03:00pm 23.1 19.0 16.4 66 4.1 N 33 46 18 25 1017.1 1017.1 0.0
30/02:30pm 23.1 18.3 15.7 63 4.5 N 35 44 19 24 1017.1 1017.1 0.0
30/02:00pm 23.4 18.9 15.5 61 4.7 N 33 43 18 23 1017.3 1017.3 0.0
30/01:30pm 23.3 18.5 15.6 62 4.6 N 35 43 19 23 1017.5 1017.5 0.0
30/01:00pm 24.1 19.4 14.8 56 5.5 N 33 44 18 24 1017.8 1017.8 0.0
30/12:30pm 24.1 18.3 12.7 49 6.6 N 35 43 19 23 1018.2 1018.2 0.0
30/12:00pm 24.7 19.6 13.6 50 6.5 N 33 43 18 23 1018.6 1018.6 0.0
30/11:30am 24.0 18.5 12.3 48 6.7 N 33 43 18 23 1018.9 1018.9 0.0
30/11:00am 24.6 20.4 14.7 54 5.9 N 30 39 16 21 1019.3 1019.3 0.0
30/10:30am 23.2 18.7 13.9 56 5.4 N 30 39 16 21 1019.8 1019.8 0.0
30/10:00am 23.6 19.7 14.3 56 5.5 N 28 35 15 19 1020.2 1020.2 0.0
30/09:30am 23.1 18.9 14.7 59 5.0 N 30 35 16 19 1020.4 1020.4 0.0
30/09:00am 22.9 19.2 15.0 61 4.7 N 28 33 15 18 1020.5 1020.5 0.0
30/08:30am 22.1 18.8 14.0 60 4.7 N 24 30 13 16 1020.4 1020.4 0.0
30/08:00am 21.5 18.9 13.7 61 4.5 N 20 28 11 15 1020.4 1020.4 0.0
30/07:30am 20.6 18.0 13.3 63 4.2 NNW 19 26 10 14 1020.3 1020.3 0.0
30/07:00am 19.5 16.7 12.7 65 3.8 NNW 19 24 10 13 1020.2 1020.2 0.0
30/06:30am 18.4 15.7 12.8 70 3.1 NNW 19 26 10 14 1020.0 1020.0 0.0
30/06:00am 17.5 15.3 12.2 71 2.9 NNW 15 20 8 11 1019.8 1019.8 0.0
30/05:30am 16.4 14.2 12.0 75 2.4 N 15 17 8 9 1019.6 1019.6 0.0
30/05:00am 16.9 14.7 12.0 73 2.7 N 15 20 8 11 1019.3 1019.3 0.0
30/04:30am 17.4 15.7 12.5 73 2.7 NNW 13 19 7 10 1019.0 1019.0 0.0
30/04:00am 17.2 15.5 12.5 74 2.6 NW 13 20 7 11 1018.6 1018.6 0.0
30/03:30am 17.3 15.6 12.6 74 2.6 NW 13 19 7 10 1018.6 1018.6 0.0
30/03:00am 17.5 15.9 12.8 74 2.6 NNW 13 19 7 10 1018.7 1018.7 0.0
30/02:30am 17.7 15.8 13.0 74 2.6 NW 15 20 8 11 1018.9 1018.9 0.0
30/02:00am 17.6 16.1 13.1 75 2.5 NW 13 19 7 10 1018.9 1018.9 0.0
30/01:30am 17.5 16.0 13.0 75 2.5 NW 13 17 7 9 1019.1 1019.1 0.0
30/01:00am 17.4 15.9 13.1 76 2.4 NW 13 19 7 10 1019.2 1019.2 0.0
30/12:30am 17.4 16.0 13.3 77 2.3 NW 13 17 7 9 1019.4 1019.4 0.0
30/12:00am 17.1 16.0 13.0 77 2.3 NW 11 15 6 8 1019.6 1019.6 0.0
 
Date/Time
EST
Temp
°C
App
Temp
°C
Dew
Point
Rel
Hum
%
Delta-T
°C
Wind Press
QNH
hPa
Press
MSL
hPa
Rain
since 9 am
mm
Dir
 
Spd
km/h
Gust
km/h
Spd
kts
Gust
kts
29/11:30pm 17.2 16.5 13.1 77 2.3 NW 9 13 5 7 1019.8 1019.8 0.0
29/11:00pm 17.5 16.0 13.2 76 2.4 NW 13 17 7 9 1019.9 1019.9 0.0
29/10:30pm 17.4 16.3 13.1 76 2.4 NW 11 15 6 8 1020.0 1020.0 0.0
29/10:00pm 17.7 16.6 13.2 75 2.5 NW 11 15 6 8 1020.0 1020.0 0.0
29/09:30pm 17.6 16.9 13.1 75 2.5 NW 9 13 5 7 1020.1 1020.1 0.0
29/09:00pm 18.2 16.8 13.3 73 2.8 NW 13 17 7 9 1020.0 1020.0 0.0
29/08:30pm 18.1 17.2 13.6 75 2.6 NW 11 13 6 7 1019.8 1019.8 0.0
29/08:00pm 19.1 17.9 13.9 72 3.0 NNW 13 17 7 9 1019.5 1019.5 0.0
29/07:30pm 19.9 17.2 14.5 71 3.1 N 22 32 12 17 1019.1 1019.1 0.0
29/07:00pm 20.1 15.8 14.5 70 3.3 N 30 37 16 20 1018.8 1018.8 0.0
29/06:30pm 20.2 16.0 14.6 70 3.3 N 30 39 16 21 1018.7 1018.7 0.0
29/06:00pm 20.2 16.8 14.8 71 3.2 N 26 32 14 17 1018.5 1018.5 0.0
29/05:30pm 20.6 17.3 14.9 70 3.3 N 26 32 14 17 1018.2 1018.2 0.0
29/05:00pm 21.1 17.6 14.5 66 3.9 N 26 33 14 18 1018.0 1018.0 0.0
29/04:30pm 21.7 18.7 14.8 65 4.1 N 24 30 13 16 1017.9 1017.9 0.0
29/04:00pm 22.0 18.1 14.4 62 4.4 N 28 35 15 19 1017.7 1017.7 0.0
29/03:30pm 22.2 18.3 14.3 61 4.6 N 28 33 15 18 1017.5 1017.5 0.0
29/03:00pm 22.6 18.8 14.7 61 4.7 N 28 35 15 19 1017.5 1017.5 0.0
29/02:30pm 22.9 19.0 14.5 59 5.0 N 28 35 15 19 1017.6 1017.6 0.0
29/02:00pm 22.6 18.8 14.7 61 4.7 N 28 33 15 18 1017.8 1017.8 0.0
29/01:30pm 22.8 18.8 14.1 58 5.1 N 28 35 15 19 1018.0 1018.0 0.0
29/01:00pm 22.6 18.5 13.9 58 5.1 N 28 35 15 19 1018.3 1018.3 0.0
29/12:30pm 22.8 18.7 13.8 57 5.2 N 28 35 15 19 1018.6 1018.6 0.0
29/12:00pm 22.7 18.8 14.3 59 4.9 N 28 33 15 18 1019.0 1019.0 0.0
29/11:30am 23.2 19.3 14.5 58 5.1 N 28 33 15 18 1019.5 1019.5 0.0
29/11:00am 23.2 19.2 14.2 57 5.3 N 28 33 15 18 1019.8 1019.8 0.0
29/10:30am 22.2 17.7 12.7 55 5.4 N 28 33 15 18 1020.2 1020.2 0.0
29/10:00am 22.5 18.9 13.0 55 5.4 N 24 30 13 16 1020.7 1020.7 0.0
29/09:30am 22.0 18.6 12.5 54 5.4 N 22 28 12 15 1021.1 1021.1 0.0
29/09:00am 21.3 18.2 12.2 56 5.1 N 20 30 11 16 1021.4 1021.4 0.2
29/08:30am 21.2 18.2 12.1 56 5.1 NNW 19 26 10 14 1021.5 1021.5 0.2

Other Formats:

Comma delimited format used in spreadsheet applications
http://www.bom.gov.au/fwo/IDQ60801/IDQ60801.94592.axf

JavaScript Object Notation format (JSON) in row-major order
http://www.bom.gov.au/fwo/IDQ60801/IDQ60801.94592.json